sensor_id;sensor_type;location;lat;lon;timestamp;temperature;humidity
35305;DHT22;26433;48.034;-1.764;2022-08-21T00:02:15;19.50;70.70
35305;DHT22;26433;48.034;-1.764;2022-08-21T00:07:19;19.40;71.10
35305;DHT22;26433;48.034;-1.764;2022-08-21T00:12:26;19.30;71.40
35305;DHT22;26433;48.034;-1.764;2022-08-21T00:17:31;19.30;71.70
35305;DHT22;26433;48.034;-1.764;2022-08-21T00:22:36;19.20;71.90
35305;DHT22;26433;48.034;-1.764;2022-08-21T00:27:40;19.10;72.10
35305;DHT22;26433;48.034;-1.764;2022-08-21T00:32:47;19.10;72.40
35305;DHT22;26433;48.034;-1.764;2022-08-21T00:37:50;19.00;72.60
35305;DHT22;26433;48.034;-1.764;2022-08-21T00:42:54;19.00;72.80
35305;DHT22;26433;48.034;-1.764;2022-08-21T00:47:59;19.00;73.00
35305;DHT22;26433;48.034;-1.764;2022-08-21T00:53:06;18.90;73.00
35305;DHT22;26433;48.034;-1.764;2022-08-21T00:58:11;19.00;73.20
35305;DHT22;26433;48.034;-1.764;2022-08-21T01:03:22;18.90;73.40
35305;DHT22;26433;48.034;-1.764;2022-08-21T01:08:27;18.80;73.70
35305;DHT22;26433;48.034;-1.764;2022-08-21T01:13:34;18.70;74.00
35305;DHT22;26433;48.034;-1.764;2022-08-21T01:18:42;18.70;74.30
35305;DHT22;26433;48.034;-1.764;2022-08-21T01:23:49;18.70;74.40
35305;DHT22;26433;48.034;-1.764;2022-08-21T01:28:57;18.70;74.40
35305;DHT22;26433;48.034;-1.764;2022-08-21T01:34:03;18.70;74.60
35305;DHT22;26433;48.034;-1.764;2022-08-21T01:39:08;18.60;74.80
35305;DHT22;26433;48.034;-1.764;2022-08-21T01:44:12;18.60;75.30
35305;DHT22;26433;48.034;-1.764;2022-08-21T01:49:16;18.60;75.30
35305;DHT22;26433;48.034;-1.764;2022-08-21T01:54:21;18.50;75.20
35305;DHT22;26433;48.034;-1.764;2022-08-21T01:59:26;18.50;76.10
35305;DHT22;26433;48.034;-1.764;2022-08-21T02:04:30;18.50;75.70
35305;DHT22;26433;48.034;-1.764;2022-08-21T02:09:35;18.50;75.70
35305;DHT22;26433;48.034;-1.764;2022-08-21T02:14:41;18.30;76.20
35305;DHT22;26433;48.034;-1.764;2022-08-21T02:19:45;18.20;76.60
35305;DHT22;26433;48.034;-1.764;2022-08-21T02:24:50;18.20;76.80
35305;DHT22;26433;48.034;-1.764;2022-08-21T02:29:57;18.20;76.80
35305;DHT22;26433;48.034;-1.764;2022-08-21T02:35:00;18.10;76.80
35305;DHT22;26433;48.034;-1.764;2022-08-21T02:40:07;18.10;76.90
35305;DHT22;26433;48.034;-1.764;2022-08-21T02:45:15;18.00;76.70
35305;DHT22;26433;48.034;-1.764;2022-08-21T02:50:21;18.00;76.90
35305;DHT22;26433;48.034;-1.764;2022-08-21T02:55:31;18.00;77.20
35305;DHT22;26433;48.034;-1.764;2022-08-21T03:00:36;18.00;77.30
35305;DHT22;26433;48.034;-1.764;2022-08-21T03:05:39;18.00;77.40
35305;DHT22;26433;48.034;-1.764;2022-08-21T03:10:46;18.00;77.50
35305;DHT22;26433;48.034;-1.764;2022-08-21T03:15:50;18.00;77.60
35305;DHT22;26433;48.034;-1.764;2022-08-21T03:20:54;18.00;77.60
35305;DHT22;26433;48.034;-1.764;2022-08-21T03:25:59;17.90;77.80
35305;DHT22;26433;48.034;-1.764;2022-08-21T03:31:03;17.90;78.10
35305;DHT22;26433;48.034;-1.764;2022-08-21T03:36:08;18.00;78.30
35305;DHT22;26433;48.034;-1.764;2022-08-21T03:41:13;17.90;78.20
35305;DHT22;26433;48.034;-1.764;2022-08-21T03:46:17;18.00;78.40
35305;DHT22;26433;48.034;-1.764;2022-08-21T03:51:20;18.00;78.40
35305;DHT22;26433;48.034;-1.764;2022-08-21T03:56:25;18.00;78.50
35305;DHT22;26433;48.034;-1.764;2022-08-21T04:01:30;18.00;78.60
35305;DHT22;26433;48.034;-1.764;2022-08-21T04:06:34;18.00;78.60
35305;DHT22;26433;48.034;-1.764;2022-08-21T04:11:40;18.00;78.70
35305;DHT22;26433;48.034;-1.764;2022-08-21T04:16:44;18.10;78.90
35305;DHT22;26433;48.034;-1.764;2022-08-21T04:21:47;18.10;78.80
35305;DHT22;26433;48.034;-1.764;2022-08-21T04:26:55;18.00;79.10
35305;DHT22;26433;48.034;-1.764;2022-08-21T04:31:58;17.90;79.50
35305;DHT22;26433;48.034;-1.764;2022-08-21T04:37:02;18.00;79.80
35305;DHT22;26433;48.034;-1.764;2022-08-21T04:42:08;18.00;79.80
35305;DHT22;26433;48.034;-1.764;2022-08-21T04:47:11;18.00;79.80
35305;DHT22;26433;48.034;-1.764;2022-08-21T04:52:18;18.10;79.70
35305;DHT22;26433;48.034;-1.764;2022-08-21T04:57:25;18.10;79.80
35305;DHT22;26433;48.034;-1.764;2022-08-21T05:02:49;18.10;79.80
35305;DHT22;26433;48.034;-1.764;2022-08-21T05:07:57;18.10;79.90
35305;DHT22;26433;48.034;-1.764;2022-08-21T05:13:05;18.10;80.00
35305;DHT22;26433;48.034;-1.764;2022-08-21T05:18:09;18.10;80.20
35305;DHT22;26433;48.034;-1.764;2022-08-21T05:23:14;18.10;80.50
35305;DHT22;26433;48.034;-1.764;2022-08-21T05:28:18;18.10;80.50
35305;DHT22;26433;48.034;-1.764;2022-08-21T05:33:22;18.10;80.50
35305;DHT22;26433;48.034;-1.764;2022-08-21T05:38:26;18.10;80.10
35305;DHT22;26433;48.034;-1.764;2022-08-21T05:43:32;18.30;80.20
35305;DHT22;26433;48.034;-1.764;2022-08-21T05:48:38;18.20;80.40
35305;DHT22;26433;48.034;-1.764;2022-08-21T05:53:43;18.20;80.60
35305;DHT22;26433;48.034;-1.764;2022-08-21T05:58:48;18.20;80.60
35305;DHT22;26433;48.034;-1.764;2022-08-21T06:03:51;18.20;80.70
35305;DHT22;26433;48.034;-1.764;2022-08-21T06:08:58;18.20;80.70
35305;DHT22;26433;48.034;-1.764;2022-08-21T06:14:03;18.30;80.70
35305;DHT22;26433;48.034;-1.764;2022-08-21T06:19:08;18.40;80.70
35305;DHT22;26433;48.034;-1.764;2022-08-21T06:24:12;18.40;80.70
35305;DHT22;26433;48.034;-1.764;2022-08-21T06:29:17;18.50;80.70
35305;DHT22;26433;48.034;-1.764;2022-08-21T06:34:22;18.50;80.70
35305;DHT22;26433;48.034;-1.764;2022-08-21T06:39:25;18.70;80.40
35305;DHT22;26433;48.034;-1.764;2022-08-21T06:44:34;18.80;80.20
35305;DHT22;26433;48.034;-1.764;2022-08-21T06:49:38;18.90;80.00
35305;DHT22;26433;48.034;-1.764;2022-08-21T06:54:42;19.00;79.90
35305;DHT22;26433;48.034;-1.764;2022-08-21T06:59:47;19.10;79.50
35305;DHT22;26433;48.034;-1.764;2022-08-21T07:04:51;19.10;79.70
35305;DHT22;26433;48.034;-1.764;2022-08-21T07:09:54;19.10;79.80
35305;DHT22;26433;48.034;-1.764;2022-08-21T07:14:59;19.20;79.60
35305;DHT22;26433;48.034;-1.764;2022-08-21T07:20:04;19.40;79.20
35305;DHT22;26433;48.034;-1.764;2022-08-21T07:25:08;19.50;78.70
35305;DHT22;26433;48.034;-1.764;2022-08-21T07:30:13;19.60;78.40
35305;DHT22;26433;48.034;-1.764;2022-08-21T07:35:17;19.70;78.00
35305;DHT22;26433;48.034;-1.764;2022-08-21T07:40:21;19.70;78.10
35305;DHT22;26433;48.034;-1.764;2022-08-21T07:45:26;19.80;78.10
35305;DHT22;26433;48.034;-1.764;2022-08-21T07:50:30;19.90;77.90
35305;DHT22;26433;48.034;-1.764;2022-08-21T07:55:34;20.10;77.50
35305;DHT22;26433;48.034;-1.764;2022-08-21T08:00:39;20.20;77.50
35305;DHT22;26433;48.034;-1.764;2022-08-21T08:05:43;20.20;77.70
35305;DHT22;26433;48.034;-1.764;2022-08-21T08:10:47;20.30;77.40
35305;DHT22;26433;48.034;-1.764;2022-08-21T08:15:53;20.30;77.60
35305;DHT22;26433;48.034;-1.764;2022-08-21T08:20:56;20.30;77.50
35305;DHT22;26433;48.034;-1.764;2022-08-21T08:26:00;20.30;77.60
35305;DHT22;26433;48.034;-1.764;2022-08-21T08:31:07;20.40;77.90
35305;DHT22;26433;48.034;-1.764;2022-08-21T08:36:15;20.40;77.30
35305;DHT22;26433;48.034;-1.764;2022-08-21T08:41:21;20.60;77.10
35305;DHT22;26433;48.034;-1.764;2022-08-21T08:46:37;20.80;76.60
35305;DHT22;26433;48.034;-1.764;2022-08-21T08:51:46;21.10;75.80
35305;DHT22;26433;48.034;-1.764;2022-08-21T08:56:54;21.30;75.10
35305;DHT22;26433;48.034;-1.764;2022-08-21T09:01:59;21.70;74.10
35305;DHT22;26433;48.034;-1.764;2022-08-21T09:07:12;22.00;73.50
35305;DHT22;26433;48.034;-1.764;2022-08-21T09:12:29;22.20;72.60
35305;DHT22;26433;48.034;-1.764;2022-08-21T09:23:17;22.40;72.10
35305;DHT22;26433;48.034;-1.764;2022-08-21T09:28:23;22.50;71.80
35305;DHT22;26433;48.034;-1.764;2022-08-21T09:33:28;22.40;71.70
35305;DHT22;26433;48.034;-1.764;2022-08-21T09:38:34;22.40;71.60
35305;DHT22;26433;48.034;-1.764;2022-08-21T09:43:38;22.30;72.00
35305;DHT22;26433;48.034;-1.764;2022-08-21T09:48:46;22.40;71.70
35305;DHT22;26433;48.034;-1.764;2022-08-21T09:53:54;22.40;71.60
35305;DHT22;26433;48.034;-1.764;2022-08-21T09:58:58;22.50;71.10
35305;DHT22;26433;48.034;-1.764;2022-08-21T10:04:05;22.60;70.70
35305;DHT22;26433;48.034;-1.764;2022-08-21T10:09:11;22.80;70.40
35305;DHT22;26433;48.034;-1.764;2022-08-21T10:14:35;22.80;70.20
35305;DHT22;26433;48.034;-1.764;2022-08-21T10:19:49;22.60;70.60
35305;DHT22;26433;48.034;-1.764;2022-08-21T10:25:02;22.40;71.30
35305;DHT22;26433;48.034;-1.764;2022-08-21T10:30:13;22.20;72.00
35305;DHT22;26433;48.034;-1.764;2022-08-21T10:35:23;21.80;73.00
35305;DHT22;26433;48.034;-1.764;2022-08-21T10:40:31;21.50;74.00
35305;DHT22;26433;48.034;-1.764;2022-08-21T10:45:49;21.50;74.50
35305;DHT22;26433;48.034;-1.764;2022-08-21T10:51:02;21.60;74.20
35305;DHT22;26433;48.034;-1.764;2022-08-21T10:56:14;21.60;74.10
35305;DHT22;26433;48.034;-1.764;2022-08-21T11:01:25;21.70;73.80
35305;DHT22;26433;48.034;-1.764;2022-08-21T11:06:33;21.70;73.70
35305;DHT22;26433;48.034;-1.764;2022-08-21T11:11:42;21.70;73.80
35305;DHT22;26433;48.034;-1.764;2022-08-21T11:17:10;21.70;74.00
35305;DHT22;26433;48.034;-1.764;2022-08-21T11:22:20;21.70;74.20
35305;DHT22;26433;48.034;-1.764;2022-08-21T11:27:28;21.60;74.60
35305;DHT22;26433;48.034;-1.764;2022-08-21T11:32:58;21.50;74.70
35305;DHT22;26433;48.034;-1.764;2022-08-21T11:38:13;21.40;75.30
35305;DHT22;26433;48.034;-1.764;2022-08-21T11:43:28;21.20;76.40
35305;DHT22;26433;48.034;-1.764;2022-08-21T11:48:42;21.00;77.20
35305;DHT22;26433;48.034;-1.764;2022-08-21T11:53:53;20.70;78.10
35305;DHT22;26433;48.034;-1.764;2022-08-21T11:59:04;20.60;78.80
35305;DHT22;26433;48.034;-1.764;2022-08-21T12:04:16;20.50;79.30
35305;DHT22;26433;48.034;-1.764;2022-08-21T12:09:34;20.40;79.90
35305;DHT22;26433;48.034;-1.764;2022-08-21T12:14:41;20.60;80.10
35305;DHT22;26433;48.034;-1.764;2022-08-21T12:19:56;20.70;79.70
35305;DHT22;26433;48.034;-1.764;2022-08-21T12:25:07;20.70;79.70
35305;DHT22;26433;48.034;-1.764;2022-08-21T12:30:21;20.60;80.80
35305;DHT22;26433;48.034;-1.764;2022-08-21T12:35:37;20.60;81.50
35305;DHT22;26433;48.034;-1.764;2022-08-21T12:40:47;20.80;81.10
35305;DHT22;26433;48.034;-1.764;2022-08-21T12:45:52;20.80;81.30
35305;DHT22;26433;48.034;-1.764;2022-08-21T12:50:57;20.90;81.80
35305;DHT22;26433;48.034;-1.764;2022-08-21T12:56:08;21.00;81.90
35305;DHT22;26433;48.034;-1.764;2022-08-21T13:01:17;21.00;82.10
35305;DHT22;26433;48.034;-1.764;2022-08-21T13:06:23;21.20;82.40
35305;DHT22;26433;48.034;-1.764;2022-08-21T13:11:32;21.40;81.90
35305;DHT22;26433;48.034;-1.764;2022-08-21T13:16:36;21.50;82.00
35305;DHT22;26433;48.034;-1.764;2022-08-21T13:21:42;21.50;82.10
35305;DHT22;26433;48.034;-1.764;2022-08-21T13:26:49;21.50;82.30
35305;DHT22;26433;48.034;-1.764;2022-08-21T13:31:54;21.60;82.70
35305;DHT22;26433;48.034;-1.764;2022-08-21T13:37:02;21.60;82.60
35305;DHT22;26433;48.034;-1.764;2022-08-21T13:42:10;21.60;83.00
35305;DHT22;26433;48.034;-1.764;2022-08-21T13:47:16;21.40;83.50
35305;DHT22;26433;48.034;-1.764;2022-08-21T13:52:24;21.40;83.90
35305;DHT22;26433;48.034;-1.764;2022-08-21T13:57:30;21.30;84.50
35305;DHT22;26433;48.034;-1.764;2022-08-21T14:02:38;21.30;85.00
35305;DHT22;26433;48.034;-1.764;2022-08-21T14:07:43;21.30;84.90
35305;DHT22;26433;48.034;-1.764;2022-08-21T14:12:51;21.20;85.40
35305;DHT22;26433;48.034;-1.764;2022-08-21T14:18:07;21.10;86.30
35305;DHT22;26433;48.034;-1.764;2022-08-21T14:23:23;21.00;86.60
35305;DHT22;26433;48.034;-1.764;2022-08-21T14:28:31;20.90;87.20
35305;DHT22;26433;48.034;-1.764;2022-08-21T14:33:35;20.90;87.20
35305;DHT22;26433;48.034;-1.764;2022-08-21T14:38:40;20.90;87.40
35305;DHT22;26433;48.034;-1.764;2022-08-21T14:43:46;20.80;87.60
35305;DHT22;26433;48.034;-1.764;2022-08-21T14:49:10;20.80;87.90
35305;DHT22;26433;48.034;-1.764;2022-08-21T14:54:15;21.00;87.40
35305;DHT22;26433;48.034;-1.764;2022-08-21T14:59:21;21.10;86.60
35305;DHT22;26433;48.034;-1.764;2022-08-21T15:04:25;21.30;86.00
35305;DHT22;26433;48.034;-1.764;2022-08-21T15:09:29;21.20;86.10
35305;DHT22;26433;48.034;-1.764;2022-08-21T15:14:36;21.10;86.60
35305;DHT22;26433;48.034;-1.764;2022-08-21T15:19:42;21.10;86.90
35305;DHT22;26433;48.034;-1.764;2022-08-21T15:24:45;21.20;87.30
35305;DHT22;26433;48.034;-1.764;2022-08-21T15:29:50;21.20;87.40
35305;DHT22;26433;48.034;-1.764;2022-08-21T15:34:57;21.30;87.50
35305;DHT22;26433;48.034;-1.764;2022-08-21T15:40:02;21.20;87.70
35305;DHT22;26433;48.034;-1.764;2022-08-21T15:45:10;21.10;88.40
35305;DHT22;26433;48.034;-1.764;2022-08-21T15:50:15;21.00;89.00
35305;DHT22;26433;48.034;-1.764;2022-08-21T15:55:19;21.10;88.90
35305;DHT22;26433;48.034;-1.764;2022-08-21T16:00:24;21.10;88.80
35305;DHT22;26433;48.034;-1.764;2022-08-21T16:05:28;21.00;89.20
35305;DHT22;26433;48.034;-1.764;2022-08-21T16:10:31;20.90;89.20
35305;DHT22;26433;48.034;-1.764;2022-08-21T16:15:36;20.80;90.10
35305;DHT22;26433;48.034;-1.764;2022-08-21T16:20:40;20.80;90.10
35305;DHT22;26433;48.034;-1.764;2022-08-21T16:25:44;20.90;90.00
35305;DHT22;26433;48.034;-1.764;2022-08-21T16:30:50;21.00;89.80
35305;DHT22;26433;48.034;-1.764;2022-08-21T16:35:53;21.10;89.30
35305;DHT22;26433;48.034;-1.764;2022-08-21T16:40:58;21.10;88.60
35305;DHT22;26433;48.034;-1.764;2022-08-21T16:46:04;21.10;88.50
35305;DHT22;26433;48.034;-1.764;2022-08-21T16:51:07;21.00;89.20
35305;DHT22;26433;48.034;-1.764;2022-08-21T16:56:13;21.00;89.60
35305;DHT22;26433;48.034;-1.764;2022-08-21T17:01:20;20.90;89.90
35305;DHT22;26433;48.034;-1.764;2022-08-21T17:06:26;21.00;90.00
35305;DHT22;26433;48.034;-1.764;2022-08-21T17:11:33;21.00;90.00
35305;DHT22;26433;48.034;-1.764;2022-08-21T17:16:44;21.00;90.10
35305;DHT22;26433;48.034;-1.764;2022-08-21T17:21:49;20.90;90.00
35305;DHT22;26433;48.034;-1.764;2022-08-21T17:26:53;21.10;90.10
35305;DHT22;26433;48.034;-1.764;2022-08-21T17:32:00;21.10;90.20
35305;DHT22;26433;48.034;-1.764;2022-08-21T17:37:05;21.10;90.30
35305;DHT22;26433;48.034;-1.764;2022-08-21T17:42:10;21.10;90.40
35305;DHT22;26433;48.034;-1.764;2022-08-21T17:47:16;21.10;90.50
35305;DHT22;26433;48.034;-1.764;2022-08-21T17:52:20;21.00;90.60
35305;DHT22;26433;48.034;-1.764;2022-08-21T17:57:24;21.00;90.70
35305;DHT22;26433;48.034;-1.764;2022-08-21T18:02:30;20.90;90.70
35305;DHT22;26433;48.034;-1.764;2022-08-21T18:07:34;20.90;90.90
35305;DHT22;26433;48.034;-1.764;2022-08-21T18:12:39;20.90;91.20
35305;DHT22;26433;48.034;-1.764;2022-08-21T18:17:48;20.90;91.00
35305;DHT22;26433;48.034;-1.764;2022-08-21T18:22:52;21.00;91.00
35305;DHT22;26433;48.034;-1.764;2022-08-21T18:28:06;20.90;91.00
35305;DHT22;26433;48.034;-1.764;2022-08-21T18:33:12;20.90;91.10
35305;DHT22;26433;48.034;-1.764;2022-08-21T18:38:16;20.80;91.30
35305;DHT22;26433;48.034;-1.764;2022-08-21T18:43:22;20.80;91.40
35305;DHT22;26433;48.034;-1.764;2022-08-21T18:48:28;20.80;91.40
35305;DHT22;26433;48.034;-1.764;2022-08-21T18:53:31;20.80;91.40
35305;DHT22;26433;48.034;-1.764;2022-08-21T18:58:37;20.70;91.50
35305;DHT22;26433;48.034;-1.764;2022-08-21T19:03:42;20.70;91.50
35305;DHT22;26433;48.034;-1.764;2022-08-21T19:08:46;20.70;91.60
35305;DHT22;26433;48.034;-1.764;2022-08-21T19:13:51;20.70;91.60
35305;DHT22;26433;48.034;-1.764;2022-08-21T19:18:58;20.70;91.80
35305;DHT22;26433;48.034;-1.764;2022-08-21T19:24:02;20.60;91.80
35305;DHT22;26433;48.034;-1.764;2022-08-21T19:29:19;20.70;91.90
35305;DHT22;26433;48.034;-1.764;2022-08-21T19:34:38;20.70;91.80
35305;DHT22;26433;48.034;-1.764;2022-08-21T19:39:42;20.70;91.90
35305;DHT22;26433;48.034;-1.764;2022-08-21T19:44:51;20.70;92.00
35305;DHT22;26433;48.034;-1.764;2022-08-21T19:50:03;20.70;92.00
35305;DHT22;26433;48.034;-1.764;2022-08-21T19:55:22;20.70;92.10
35305;DHT22;26433;48.034;-1.764;2022-08-21T20:00:26;20.70;92.00
35305;DHT22;26433;48.034;-1.764;2022-08-21T20:05:31;20.70;92.10
35305;DHT22;26433;48.034;-1.764;2022-08-21T20:10:41;20.70;92.20
35305;DHT22;26433;48.034;-1.764;2022-08-21T20:15:45;20.70;92.20
35305;DHT22;26433;48.034;-1.764;2022-08-21T20:20:50;20.70;92.50
35305;DHT22;26433;48.034;-1.764;2022-08-21T20:25:54;20.60;92.20
35305;DHT22;26433;48.034;-1.764;2022-08-21T20:30:58;20.60;92.30
35305;DHT22;26433;48.034;-1.764;2022-08-21T20:36:06;20.60;92.40
35305;DHT22;26433;48.034;-1.764;2022-08-21T20:41:10;20.60;92.20
35305;DHT22;26433;48.034;-1.764;2022-08-21T20:46:32;20.60;92.30
35305;DHT22;26433;48.034;-1.764;2022-08-21T20:51:40;20.60;92.60
35305;DHT22;26433;48.034;-1.764;2022-08-21T20:56:48;20.60;92.40
35305;DHT22;26433;48.034;-1.764;2022-08-21T21:01:56;20.60;92.50
35305;DHT22;26433;48.034;-1.764;2022-08-21T21:07:05;20.60;92.60
35305;DHT22;26433;48.034;-1.764;2022-08-21T21:12:17;20.60;92.60
35305;DHT22;26433;48.034;-1.764;2022-08-21T21:17:34;20.60;92.70
35305;DHT22;26433;48.034;-1.764;2022-08-21T21:22:45;20.60;92.70
35305;DHT22;26433;48.034;-1.764;2022-08-21T21:27:54;20.60;92.90
35305;DHT22;26433;48.034;-1.764;2022-08-21T21:32:59;20.50;92.90
35305;DHT22;26433;48.034;-1.764;2022-08-21T21:38:10;20.50;92.90
35305;DHT22;26433;48.034;-1.764;2022-08-21T21:43:31;20.50;93.00
35305;DHT22;26433;48.034;-1.764;2022-08-21T21:48:48;20.50;93.00
35305;DHT22;26433;48.034;-1.764;2022-08-21T21:54:02;20.50;93.10
35305;DHT22;26433;48.034;-1.764;2022-08-21T21:59:30;20.50;93.20
35305;DHT22;26433;48.034;-1.764;2022-08-21T22:04:51;20.50;93.30
35305;DHT22;26433;48.034;-1.764;2022-08-21T22:10:03;20.50;93.30
35305;DHT22;26433;48.034;-1.764;2022-08-21T22:15:29;20.50;93.30
35305;DHT22;26433;48.034;-1.764;2022-08-21T22:20:37;20.40;93.30
35305;DHT22;26433;48.034;-1.764;2022-08-21T22:25:50;20.40;93.40
35305;DHT22;26433;48.034;-1.764;2022-08-21T22:31:08;20.40;93.50
35305;DHT22;26433;48.034;-1.764;2022-08-21T22:36:18;20.50;93.40
35305;DHT22;26433;48.034;-1.764;2022-08-21T22:41:29;20.50;93.50
35305;DHT22;26433;48.034;-1.764;2022-08-21T22:46:38;20.50;93.50
35305;DHT22;26433;48.034;-1.764;2022-08-21T22:51:46;20.50;93.60
35305;DHT22;26433;48.034;-1.764;2022-08-21T22:56:59;20.50;93.60
35305;DHT22;26433;48.034;-1.764;2022-08-21T23:02:07;20.50;93.60
35305;DHT22;26433;48.034;-1.764;2022-08-21T23:07:34;20.50;93.70
35305;DHT22;26433;48.034;-1.764;2022-08-21T23:12:49;20.50;93.80
35305;DHT22;26433;48.034;-1.764;2022-08-21T23:18:01;20.40;93.70
35305;DHT22;26433;48.034;-1.764;2022-08-21T23:23:17;20.40;93.80
35305;DHT22;26433;48.034;-1.764;2022-08-21T23:28:34;20.50;93.80
35305;DHT22;26433;48.034;-1.764;2022-08-21T23:33:58;20.40;93.80
35305;DHT22;26433;48.034;-1.764;2022-08-21T23:39:19;20.40;93.90
35305;DHT22;26433;48.034;-1.764;2022-08-21T23:44:36;20.40;93.90
35305;DHT22;26433;48.034;-1.764;2022-08-21T23:50:04;20.40;93.90
35305;DHT22;26433;48.034;-1.764;2022-08-21T23:55:31;20.40;93.90
